sensor_id;sensor_type;location;lat;lon;timestamp;P1;durP1;ratioP1;P2;durP2;ratioP2
67941;SDS011;54731;42.600;23.476;2024-03-06T00:01:31;43.30;;;20.10;;
67941;SDS011;54731;42.600;23.476;2024-03-06T00:03:56;31.57;;;15.87;;
67941;SDS011;54731;42.600;23.476;2024-03-06T00:06:22;28.23;;;15.40;;
67941;SDS011;54731;42.600;23.476;2024-03-06T00:08:47;43.50;;;18.30;;
67941;SDS011;54731;42.600;23.476;2024-03-06T00:11:12;33.63;;;17.70;;
67941;SDS011;54731;42.600;23.476;2024-03-06T00:13:38;36.43;;;16.63;;
67941;SDS011;54731;42.600;23.476;2024-03-06T00:16:03;33.33;;;14.93;;
67941;SDS011;54731;42.600;23.476;2024-03-06T00:18:28;36.73;;;20.03;;
67941;SDS011;54731;42.600;23.476;2024-03-06T00:20:54;41.30;;;19.23;;
67941;SDS011;54731;42.600;23.476;2024-03-06T00:23:19;43.80;;;19.73;;
67941;SDS011;54731;42.600;23.476;2024-03-06T00:25:44;38.73;;;19.30;;
67941;SDS011;54731;42.600;23.476;2024-03-06T00:28:10;33.10;;;17.77;;
67941;SDS011;54731;42.600;23.476;2024-03-06T00:30:35;38.75;;;17.92;;
67941;SDS011;54731;42.600;23.476;2024-03-06T00:33:00;36.47;;;19.23;;
67941;SDS011;54731;42.600;23.476;2024-03-06T00:35:26;38.60;;;17.77;;
67941;SDS011;54731;42.600;23.476;2024-03-06T00:37:51;31.57;;;17.43;;
67941;SDS011;54731;42.600;23.476;2024-03-06T00:40:17;33.67;;;17.83;;
67941;SDS011;54731;42.600;23.476;2024-03-06T00:42:42;38.25;;;17.35;;
67941;SDS011;54731;42.600;23.476;2024-03-06T00:45:07;32.70;;;17.53;;
67941;SDS011;54731;42.600;23.476;2024-03-06T00:47:33;34.57;;;17.10;;
67941;SDS011;54731;42.600;23.476;2024-03-06T00:49:58;31.60;;;18.13;;
67941;SDS011;54731;42.600;23.476;2024-03-06T00:52:23;32.37;;;17.57;;
67941;SDS011;54731;42.600;23.476;2024-03-06T00:54:49;33.03;;;18.27;;
67941;SDS011;54731;42.600;23.476;2024-03-06T00:57:14;40.13;;;19.63;;
67941;SDS011;54731;42.600;23.476;2024-03-06T00:59:39;42.13;;;19.80;;
67941;SDS011;54731;42.600;23.476;2024-03-06T01:02:05;45.17;;;21.27;;
67941;SDS011;54731;42.600;23.476;2024-03-06T01:04:30;46.27;;;21.03;;
67941;SDS011;54731;42.600;23.476;2024-03-06T01:06:55;45.53;;;22.00;;
67941;SDS011;54731;42.600;23.476;2024-03-06T01:09:20;37.97;;;18.03;;
67941;SDS011;54731;42.600;23.476;2024-03-06T01:11:46;31.67;;;16.57;;
67941;SDS011;54731;42.600;23.476;2024-03-06T01:14:11;28.43;;;15.33;;
67941;SDS011;54731;42.600;23.476;2024-03-06T01:16:36;28.73;;;14.43;;
67941;SDS011;54731;42.600;23.476;2024-03-06T01:19:01;23.80;;;13.53;;
67941;SDS011;54731;42.600;23.476;2024-03-06T01:21:27;19.03;;;9.80;;
67941;SDS011;54731;42.600;23.476;2024-03-06T01:23:52;22.35;;;11.65;;
67941;SDS011;54731;42.600;23.476;2024-03-06T01:26:17;22.30;;;11.53;;
67941;SDS011;54731;42.600;23.476;2024-03-06T01:28:43;23.37;;;11.90;;
67941;SDS011;54731;42.600;23.476;2024-03-06T01:31:08;20.83;;;10.73;;
67941;SDS011;54731;42.600;23.476;2024-03-06T01:33:33;20.77;;;11.20;;
67941;SDS011;54731;42.600;23.476;2024-03-06T01:35:58;17.93;;;10.00;;
67941;SDS011;54731;42.600;23.476;2024-03-06T01:38:24;17.87;;;8.73;;
67941;SDS011;54731;42.600;23.476;2024-03-06T01:40:49;16.27;;;8.20;;
67941;SDS011;54731;42.600;23.476;2024-03-06T01:43:21;17.50;;;8.20;;
67941;SDS011;54731;42.600;23.476;2024-03-06T01:45:48;18.17;;;9.30;;
67941;SDS011;54731;42.600;23.476;2024-03-06T01:48:15;19.65;;;9.27;;
67941;SDS011;54731;42.600;23.476;2024-03-06T01:50:41;18.30;;;8.88;;
67941;SDS011;54731;42.600;23.476;2024-03-06T01:53:07;17.07;;;8.60;;
67941;SDS011;54731;42.600;23.476;2024-03-06T01:55:32;13.27;;;7.65;;
67941;SDS011;54731;42.600;23.476;2024-03-06T01:57:58;13.03;;;7.47;;
67941;SDS011;54731;42.600;23.476;2024-03-06T02:00:24;15.33;;;7.60;;
67941;SDS011;54731;42.600;23.476;2024-03-06T02:02:49;13.80;;;7.25;;
67941;SDS011;54731;42.600;23.476;2024-03-06T02:05:14;13.37;;;6.43;;
67941;SDS011;54731;42.600;23.476;2024-03-06T02:07:40;16.00;;;6.80;;
67941;SDS011;54731;42.600;23.476;2024-03-06T02:10:08;16.90;;;7.55;;
67941;SDS011;54731;42.600;23.476;2024-03-06T02:12:33;17.43;;;7.63;;
67941;SDS011;54731;42.600;23.476;2024-03-06T02:14:58;17.65;;;7.25;;
67941;SDS011;54731;42.600;23.476;2024-03-06T02:17:24;12.32;;;6.47;;
67941;SDS011;54731;42.600;23.476;2024-03-06T02:19:49;13.20;;;6.67;;
67941;SDS011;54731;42.600;23.476;2024-03-06T02:22:14;12.07;;;6.30;;
67941;SDS011;54731;42.600;23.476;2024-03-06T02:24:43;12.97;;;6.47;;
67941;SDS011;54731;42.600;23.476;2024-03-06T02:27:10;15.00;;;6.90;;
67941;SDS011;54731;42.600;23.476;2024-03-06T02:29:36;13.67;;;6.37;;
67941;SDS011;54731;42.600;23.476;2024-03-06T02:32:01;15.63;;;6.90;;
67941;SDS011;54731;42.600;23.476;2024-03-06T02:34:26;13.27;;;6.83;;
67941;SDS011;54731;42.600;23.476;2024-03-06T02:36:52;12.00;;;6.63;;
67941;SDS011;54731;42.600;23.476;2024-03-06T02:39:17;13.17;;;6.90;;
67941;SDS011;54731;42.600;23.476;2024-03-06T02:41:43;13.07;;;6.63;;
67941;SDS011;54731;42.600;23.476;2024-03-06T02:44:08;13.25;;;6.55;;
67941;SDS011;54731;42.600;23.476;2024-03-06T02:46:33;14.90;;;7.53;;
67941;SDS011;54731;42.600;23.476;2024-03-06T02:48:59;15.60;;;7.97;;
67941;SDS011;54731;42.600;23.476;2024-03-06T02:51:24;13.07;;;7.00;;
67941;SDS011;54731;42.600;23.476;2024-03-06T02:53:49;14.43;;;7.67;;
67941;SDS011;54731;42.600;23.476;2024-03-06T02:56:18;18.87;;;7.47;;
67941;SDS011;54731;42.600;23.476;2024-03-06T02:58:44;20.38;;;7.68;;
67941;SDS011;54731;42.600;23.476;2024-03-06T03:01:10;14.13;;;7.13;;
67941;SDS011;54731;42.600;23.476;2024-03-06T03:03:35;19.00;;;10.77;;
67941;SDS011;54731;42.600;23.476;2024-03-06T03:06:01;17.15;;;9.63;;
67941;SDS011;54731;42.600;23.476;2024-03-06T03:08:26;16.48;;;8.57;;
67941;SDS011;54731;42.600;23.476;2024-03-06T03:10:51;19.47;;;10.13;;
67941;SDS011;54731;42.600;23.476;2024-03-06T03:13:17;16.37;;;7.67;;
67941;SDS011;54731;42.600;23.476;2024-03-06T03:15:42;19.00;;;8.10;;
67941;SDS011;54731;42.600;23.476;2024-03-06T03:18:07;15.93;;;8.20;;
67941;SDS011;54731;42.600;23.476;2024-03-06T03:20:33;14.53;;;7.63;;
67941;SDS011;54731;42.600;23.476;2024-03-06T03:22:58;18.77;;;8.03;;
67941;SDS011;54731;42.600;23.476;2024-03-06T03:25:24;14.32;;;7.00;;
67941;SDS011;54731;42.600;23.476;2024-03-06T03:27:50;15.80;;;8.17;;
67941;SDS011;54731;42.600;23.476;2024-03-06T03:30:15;30.13;;;11.87;;
67941;SDS011;54731;42.600;23.476;2024-03-06T03:32:40;24.67;;;11.63;;
67941;SDS011;54731;42.600;23.476;2024-03-06T03:35:06;28.30;;;12.77;;
67941;SDS011;54731;42.600;23.476;2024-03-06T03:37:32;27.30;;;13.07;;
67941;SDS011;54731;42.600;23.476;2024-03-06T03:39:57;34.10;;;14.93;;
67941;SDS011;54731;42.600;23.476;2024-03-06T03:42:23;35.50;;;15.80;;
67941;SDS011;54731;42.600;23.476;2024-03-06T03:44:48;34.13;;;16.40;;
67941;SDS011;54731;42.600;23.476;2024-03-06T03:47:14;35.67;;;18.53;;
67941;SDS011;54731;42.600;23.476;2024-03-06T03:49:39;37.07;;;18.43;;
67941;SDS011;54731;42.600;23.476;2024-03-06T03:52:04;26.70;;;12.75;;
67941;SDS011;54731;42.600;23.476;2024-03-06T03:54:30;35.07;;;17.23;;
67941;SDS011;54731;42.600;23.476;2024-03-06T03:56:55;38.33;;;19.23;;
67941;SDS011;54731;42.600;23.476;2024-03-06T03:59:20;38.60;;;18.43;;
67941;SDS011;54731;42.600;23.476;2024-03-06T04:01:46;38.50;;;17.77;;
67941;SDS011;54731;42.600;23.476;2024-03-06T04:04:11;41.47;;;19.17;;
67941;SDS011;54731;42.600;23.476;2024-03-06T04:06:36;37.73;;;17.20;;
67941;SDS011;54731;42.600;23.476;2024-03-06T04:09:01;35.33;;;16.17;;
67941;SDS011;54731;42.600;23.476;2024-03-06T04:11:27;33.90;;;15.18;;
67941;SDS011;54731;42.600;23.476;2024-03-06T04:13:52;62.97;;;21.37;;
67941;SDS011;54731;42.600;23.476;2024-03-06T04:16:17;65.03;;;24.40;;
67941;SDS011;54731;42.600;23.476;2024-03-06T04:18:43;52.27;;;22.63;;
67941;SDS011;54731;42.600;23.476;2024-03-06T04:21:09;37.35;;;17.52;;
67941;SDS011;54731;42.600;23.476;2024-03-06T04:23:34;31.33;;;13.10;;
67941;SDS011;54731;42.600;23.476;2024-03-06T04:25:59;22.97;;;11.40;;
67941;SDS011;54731;42.600;23.476;2024-03-06T04:28:25;32.77;;;17.40;;
67941;SDS011;54731;42.600;23.476;2024-03-06T04:30:50;23.02;;;11.45;;
67941;SDS011;54731;42.600;23.476;2024-03-06T04:33:16;23.93;;;11.63;;
67941;SDS011;54731;42.600;23.476;2024-03-06T04:35:41;16.70;;;7.87;;
67941;SDS011;54731;42.600;23.476;2024-03-06T04:38:06;19.67;;;7.80;;
67941;SDS011;54731;42.600;23.476;2024-03-06T04:40:33;15.50;;;8.05;;
67941;SDS011;54731;42.600;23.476;2024-03-06T04:42:58;15.83;;;7.90;;
67941;SDS011;54731;42.600;23.476;2024-03-06T04:45:24;17.10;;;8.60;;
67941;SDS011;54731;42.600;23.476;2024-03-06T04:47:49;21.63;;;11.52;;
67941;SDS011;54731;42.600;23.476;2024-03-06T04:50:14;20.63;;;10.47;;
67941;SDS011;54731;42.600;23.476;2024-03-06T04:52:40;19.33;;;10.83;;
67941;SDS011;54731;42.600;23.476;2024-03-06T04:55:06;14.80;;;8.48;;
67941;SDS011;54731;42.600;23.476;2024-03-06T04:57:32;12.83;;;6.87;;
67941;SDS011;54731;42.600;23.476;2024-03-06T04:59:59;12.45;;;6.43;;
67941;SDS011;54731;42.600;23.476;2024-03-06T05:02:24;19.33;;;9.17;;
67941;SDS011;54731;42.600;23.476;2024-03-06T05:04:49;19.10;;;11.20;;
67941;SDS011;54731;42.600;23.476;2024-03-06T05:07:15;27.20;;;13.32;;
67941;SDS011;54731;42.600;23.476;2024-03-06T05:09:40;27.33;;;13.83;;
67941;SDS011;54731;42.600;23.476;2024-03-06T05:12:05;32.10;;;15.50;;
67941;SDS011;54731;42.600;23.476;2024-03-06T05:14:31;29.63;;;16.63;;
67941;SDS011;54731;42.600;23.476;2024-03-06T05:16:56;27.00;;;15.10;;
67941;SDS011;54731;42.600;23.476;2024-03-06T05:19:21;20.33;;;12.40;;
67941;SDS011;54731;42.600;23.476;2024-03-06T05:21:47;21.03;;;9.63;;
67941;SDS011;54731;42.600;23.476;2024-03-06T05:24:12;19.77;;;8.07;;
67941;SDS011;54731;42.600;23.476;2024-03-06T05:26:37;11.70;;;6.25;;
67941;SDS011;54731;42.600;23.476;2024-03-06T05:29:03;15.23;;;7.03;;
67941;SDS011;54731;42.600;23.476;2024-03-06T05:31:28;13.23;;;7.00;;
67941;SDS011;54731;42.600;23.476;2024-03-06T05:33:53;12.50;;;6.83;;
67941;SDS011;54731;42.600;23.476;2024-03-06T05:36:18;13.10;;;6.97;;
67941;SDS011;54731;42.600;23.476;2024-03-06T05:38:44;13.13;;;6.93;;
67941;SDS011;54731;42.600;23.476;2024-03-06T05:41:10;12.38;;;6.57;;
67941;SDS011;54731;42.600;23.476;2024-03-06T05:43:35;16.13;;;6.77;;
67941;SDS011;54731;42.600;23.476;2024-03-06T05:46:00;14.87;;;6.77;;
67941;SDS011;54731;42.600;23.476;2024-03-06T05:48:26;11.93;;;6.47;;
67941;SDS011;54731;42.600;23.476;2024-03-06T05:50:51;15.87;;;6.93;;
67941;SDS011;54731;42.600;23.476;2024-03-06T05:53:16;13.73;;;7.10;;
67941;SDS011;54731;42.600;23.476;2024-03-06T05:55:42;10.40;;;5.63;;
67941;SDS011;54731;42.600;23.476;2024-03-06T05:58:07;15.27;;;6.87;;
67941;SDS011;54731;42.600;23.476;2024-03-06T06:00:32;13.07;;;7.63;;
67941;SDS011;54731;42.600;23.476;2024-03-06T06:02:57;16.73;;;7.93;;
67941;SDS011;54731;42.600;23.476;2024-03-06T06:05:23;55.27;;;25.03;;
67941;SDS011;54731;42.600;23.476;2024-03-06T06:07:48;49.00;;;27.40;;
67941;SDS011;54731;42.600;23.476;2024-03-06T06:10:14;92.90;;;41.57;;
67941;SDS011;54731;42.600;23.476;2024-03-06T06:12:39;61.28;;;31.33;;
67941;SDS011;54731;42.600;23.476;2024-03-06T06:15:05;46.67;;;25.20;;
67941;SDS011;54731;42.600;23.476;2024-03-06T06:17:30;40.03;;;22.13;;
67941;SDS011;54731;42.600;23.476;2024-03-06T06:19:56;53.30;;;26.70;;
67941;SDS011;54731;42.600;23.476;2024-03-06T06:22:21;49.70;;;28.55;;
67941;SDS011;54731;42.600;23.476;2024-03-06T06:24:46;44.80;;;26.00;;
67941;SDS011;54731;42.600;23.476;2024-03-06T06:27:11;41.13;;;20.70;;
67941;SDS011;54731;42.600;23.476;2024-03-06T06:29:37;39.20;;;19.43;;
67941;SDS011;54731;42.600;23.476;2024-03-06T06:32:02;41.20;;;20.77;;
67941;SDS011;54731;42.600;23.476;2024-03-06T06:34:27;42.00;;;21.87;;
67941;SDS011;54731;42.600;23.476;2024-03-06T06:36:53;41.73;;;21.40;;
67941;SDS011;54731;42.600;23.476;2024-03-06T06:39:18;44.83;;;22.08;;
67941;SDS011;54731;42.600;23.476;2024-03-06T06:41:44;46.20;;;22.33;;
67941;SDS011;54731;42.600;23.476;2024-03-06T06:44:09;54.07;;;25.60;;
67941;SDS011;54731;42.600;23.476;2024-03-06T06:46:34;50.07;;;25.90;;
67941;SDS011;54731;42.600;23.476;2024-03-06T06:49:00;52.07;;;26.30;;
67941;SDS011;54731;42.600;23.476;2024-03-06T06:51:25;54.33;;;28.07;;
67941;SDS011;54731;42.600;23.476;2024-03-06T06:53:50;53.30;;;25.13;;
67941;SDS011;54731;42.600;23.476;2024-03-06T06:56:16;55.75;;;27.60;;
67941;SDS011;54731;42.600;23.476;2024-03-06T06:58:41;60.10;;;29.40;;
67941;SDS011;54731;42.600;23.476;2024-03-06T07:01:06;57.47;;;29.07;;
67941;SDS011;54731;42.600;23.476;2024-03-06T07:03:31;55.47;;;27.40;;
67941;SDS011;54731;42.600;23.476;2024-03-06T07:05:57;60.23;;;28.00;;
67941;SDS011;54731;42.600;23.476;2024-03-06T07:08:22;58.60;;;27.77;;
67941;SDS011;54731;42.600;23.476;2024-03-06T07:10:48;66.00;;;31.10;;
67941;SDS011;54731;42.600;23.476;2024-03-06T07:13:13;59.33;;;29.73;;
67941;SDS011;54731;42.600;23.476;2024-03-06T07:15:38;69.43;;;31.73;;
67941;SDS011;54731;42.600;23.476;2024-03-06T07:18:04;52.03;;;26.23;;
67941;SDS011;54731;42.600;23.476;2024-03-06T07:20:29;54.37;;;25.67;;
67941;SDS011;54731;42.600;23.476;2024-03-06T07:22:54;52.83;;;24.03;;
67941;SDS011;54731;42.600;23.476;2024-03-06T07:25:20;54.13;;;25.23;;
67941;SDS011;54731;42.600;23.476;2024-03-06T07:27:45;45.13;;;22.83;;
67941;SDS011;54731;42.600;23.476;2024-03-06T07:30:10;51.03;;;25.25;;
67941;SDS011;54731;42.600;23.476;2024-03-06T07:32:36;45.83;;;22.50;;
67941;SDS011;54731;42.600;23.476;2024-03-06T07:35:01;49.73;;;24.60;;
67941;SDS011;54731;42.600;23.476;2024-03-06T07:37:27;50.97;;;24.20;;
67941;SDS011;54731;42.600;23.476;2024-03-06T07:39:52;45.90;;;22.87;;
67941;SDS011;54731;42.600;23.476;2024-03-06T07:42:17;46.80;;;23.20;;
67941;SDS011;54731;42.600;23.476;2024-03-06T07:44:42;46.45;;;23.25;;
67941;SDS011;54731;42.600;23.476;2024-03-06T07:47:08;46.80;;;22.87;;
67941;SDS011;54731;42.600;23.476;2024-03-06T07:49:33;42.90;;;21.50;;
67941;SDS011;54731;42.600;23.476;2024-03-06T07:51:59;39.33;;;19.20;;
67941;SDS011;54731;42.600;23.476;2024-03-06T07:54:24;34.53;;;16.43;;
67941;SDS011;54731;42.600;23.476;2024-03-06T07:56:49;27.43;;;13.17;;
67941;SDS011;54731;42.600;23.476;2024-03-06T07:59:15;31.13;;;15.67;;
67941;SDS011;54731;42.600;23.476;2024-03-06T08:01:40;28.20;;;13.55;;
67941;SDS011;54731;42.600;23.476;2024-03-06T08:04:05;29.13;;;13.63;;
67941;SDS011;54731;42.600;23.476;2024-03-06T08:06:30;26.87;;;13.63;;
67941;SDS011;54731;42.600;23.476;2024-03-06T08:08:56;32.90;;;16.30;;
67941;SDS011;54731;42.600;23.476;2024-03-06T08:11:21;36.20;;;18.97;;
67941;SDS011;54731;42.600;23.476;2024-03-06T08:13:46;46.37;;;22.03;;
67941;SDS011;54731;42.600;23.476;2024-03-06T08:16:13;35.63;;;18.13;;
67941;SDS011;54731;42.600;23.476;2024-03-06T08:18:39;34.23;;;16.53;;
67941;SDS011;54731;42.600;23.476;2024-03-06T08:21:04;38.00;;;16.40;;
67941;SDS011;54731;42.600;23.476;2024-03-06T08:23:29;29.43;;;14.33;;
67941;SDS011;54731;42.600;23.476;2024-03-06T08:25:55;31.70;;;16.83;;
67941;SDS011;54731;42.600;23.476;2024-03-06T08:28:20;32.92;;;16.02;;
67941;SDS011;54731;42.600;23.476;2024-03-06T08:30:46;32.77;;;15.40;;
67941;SDS011;54731;42.600;23.476;2024-03-06T08:33:11;27.30;;;14.60;;
67941;SDS011;54731;42.600;23.476;2024-03-06T08:35:36;34.80;;;17.27;;
67941;SDS011;54731;42.600;23.476;2024-03-06T08:38:02;33.67;;;16.23;;
67941;SDS011;54731;42.600;23.476;2024-03-06T08:40:27;26.57;;;14.17;;
67941;SDS011;54731;42.600;23.476;2024-03-06T08:42:53;30.07;;;15.60;;
67941;SDS011;54731;42.600;23.476;2024-03-06T08:45:18;28.57;;;14.80;;
67941;SDS011;54731;42.600;23.476;2024-03-06T08:47:44;27.77;;;14.80;;
67941;SDS011;54731;42.600;23.476;2024-03-06T08:50:10;28.33;;;14.25;;
67941;SDS011;54731;42.600;23.476;2024-03-06T08:52:37;23.42;;;12.93;;
67941;SDS011;54731;42.600;23.476;2024-03-06T08:55:02;27.30;;;11.83;;
67941;SDS011;54731;42.600;23.476;2024-03-06T08:57:28;22.20;;;10.65;;
67941;SDS011;54731;42.600;23.476;2024-03-06T08:59:54;21.97;;;10.57;;
67941;SDS011;54731;42.600;23.476;2024-03-06T09:02:19;22.45;;;12.07;;
67941;SDS011;54731;42.600;23.476;2024-03-06T09:04:45;23.70;;;11.93;;
67941;SDS011;54731;42.600;23.476;2024-03-06T09:07:11;26.37;;;14.43;;
67941;SDS011;54731;42.600;23.476;2024-03-06T09:09:37;27.42;;;14.02;;
67941;SDS011;54731;42.600;23.476;2024-03-06T09:12:06;25.23;;;13.45;;
67941;SDS011;54731;42.600;23.476;2024-03-06T09:14:32;25.83;;;13.73;;
67941;SDS011;54731;42.600;23.476;2024-03-06T09:16:58;24.83;;;13.50;;
67941;SDS011;54731;42.600;23.476;2024-03-06T09:19:24;26.88;;;13.63;;
67941;SDS011;54731;42.600;23.476;2024-03-06T09:21:49;23.57;;;13.13;;
67941;SDS011;54731;42.600;23.476;2024-03-06T09:24:14;26.40;;;12.93;;
67941;SDS011;54731;42.600;23.476;2024-03-06T09:26:39;23.20;;;12.50;;
67941;SDS011;54731;42.600;23.476;2024-03-06T09:29:05;24.17;;;11.43;;
67941;SDS011;54731;42.600;23.476;2024-03-06T09:31:30;21.53;;;11.53;;
67941;SDS011;54731;42.600;23.476;2024-03-06T09:33:55;22.03;;;12.07;;
67941;SDS011;54731;42.600;23.476;2024-03-06T09:36:21;24.40;;;11.93;;
67941;SDS011;54731;42.600;23.476;2024-03-06T09:38:46;19.00;;;10.00;;
67941;SDS011;54731;42.600;23.476;2024-03-06T09:41:11;19.67;;;10.17;;
67941;SDS011;54731;42.600;23.476;2024-03-06T09:43:37;22.20;;;10.82;;
67941;SDS011;54731;42.600;23.476;2024-03-06T09:46:02;18.30;;;10.20;;
67941;SDS011;54731;42.600;23.476;2024-03-06T09:48:29;14.70;;;8.10;;
67941;SDS011;54731;42.600;23.476;2024-03-06T09:50:55;14.55;;;7.43;;
67941;SDS011;54731;42.600;23.476;2024-03-06T09:53:25;15.95;;;8.43;;
67941;SDS011;54731;42.600;23.476;2024-03-06T09:55:51;13.87;;;8.80;;
67941;SDS011;54731;42.600;23.476;2024-03-06T09:58:17;14.80;;;7.65;;
67941;SDS011;54731;42.600;23.476;2024-03-06T10:00:42;17.37;;;8.30;;
67941;SDS011;54731;42.600;23.476;2024-03-06T10:03:08;15.17;;;7.87;;
67941;SDS011;54731;42.600;23.476;2024-03-06T10:05:33;14.47;;;7.60;;
67941;SDS011;54731;42.600;23.476;2024-03-06T10:08:00;13.50;;;7.72;;
67941;SDS011;54731;42.600;23.476;2024-03-06T10:10:26;14.55;;;6.72;;
67941;SDS011;54731;42.600;23.476;2024-03-06T10:12:51;11.00;;;6.60;;
67941;SDS011;54731;42.600;23.476;2024-03-06T10:15:17;15.45;;;7.22;;
67941;SDS011;54731;42.600;23.476;2024-03-06T10:17:42;16.67;;;7.30;;
67941;SDS011;54731;42.600;23.476;2024-03-06T10:20:25;20.70;;;7.80;;
67941;SDS011;54731;42.600;23.476;2024-03-06T10:22:53;18.93;;;7.77;;
67941;SDS011;54731;42.600;23.476;2024-03-06T10:25:22;16.17;;;8.10;;
67941;SDS011;54731;42.600;23.476;2024-03-06T10:28:09;16.13;;;8.27;;
67941;SDS011;54731;42.600;23.476;2024-03-06T10:30:34;16.52;;;8.73;;
67941;SDS011;54731;42.600;23.476;2024-03-06T10:33:04;19.50;;;9.32;;
67941;SDS011;54731;42.600;23.476;2024-03-06T10:35:30;13.30;;;6.93;;
67941;SDS011;54731;42.600;23.476;2024-03-06T10:37:55;14.35;;;7.20;;
67941;SDS011;54731;42.600;23.476;2024-03-06T10:40:21;13.60;;;6.73;;
67941;SDS011;54731;42.600;23.476;2024-03-06T10:42:48;14.65;;;6.50;;
67941;SDS011;54731;42.600;23.476;2024-03-06T10:45:14;16.08;;;7.90;;
67941;SDS011;54731;42.600;23.476;2024-03-06T10:47:39;12.27;;;6.30;;
67941;SDS011;54731;42.600;23.476;2024-03-06T10:50:05;16.23;;;7.53;;
67941;SDS011;54731;42.600;23.476;2024-03-06T10:52:31;15.33;;;8.20;;
67941;SDS011;54731;42.600;23.476;2024-03-06T10:54:58;16.13;;;7.88;;
67941;SDS011;54731;42.600;23.476;2024-03-06T10:57:25;12.57;;;7.45;;
67941;SDS011;54731;42.600;23.476;2024-03-06T10:59:52;15.95;;;7.63;;
67941;SDS011;54731;42.600;23.476;2024-03-06T11:02:17;16.35;;;8.00;;
67941;SDS011;54731;42.600;23.476;2024-03-06T11:04:44;15.80;;;7.90;;
67941;SDS011;54731;42.600;23.476;2024-03-06T11:07:09;13.85;;;7.63;;
67941;SDS011;54731;42.600;23.476;2024-03-06T11:09:36;18.50;;;7.33;;
67941;SDS011;54731;42.600;23.476;2024-03-06T11:12:02;13.35;;;6.20;;
67941;SDS011;54731;42.600;23.476;2024-03-06T11:14:30;16.23;;;7.03;;
67941;SDS011;54731;42.600;23.476;2024-03-06T11:17:02;14.63;;;6.37;;
67941;SDS011;54731;42.600;23.476;2024-03-06T11:28:11;11.57;;;5.88;;
67941;SDS011;54731;42.600;23.476;2024-03-06T11:33:12;16.38;;;6.30;;
67941;SDS011;54731;42.600;23.476;2024-03-06T11:35:40;10.70;;;5.45;;
67941;SDS011;54731;42.600;23.476;2024-03-06T11:38:05;12.40;;;5.28;;
67941;SDS011;54731;42.600;23.476;2024-03-06T11:40:31;8.90;;;5.40;;
67941;SDS011;54731;42.600;23.476;2024-03-06T11:42:56;9.93;;;5.57;;
67941;SDS011;54731;42.600;23.476;2024-03-06T11:45:21;12.17;;;6.47;;
67941;SDS011;54731;42.600;23.476;2024-03-06T11:50:42;12.35;;;6.05;;
67941;SDS011;54731;42.600;23.476;2024-03-06T11:53:07;10.63;;;5.90;;
67941;SDS011;54731;42.600;23.476;2024-03-06T11:55:32;12.90;;;5.80;;
67941;SDS011;54731;42.600;23.476;2024-03-06T11:57:58;9.47;;;5.10;;
67941;SDS011;54731;42.600;23.476;2024-03-06T12:00:23;9.37;;;5.57;;
67941;SDS011;54731;42.600;23.476;2024-03-06T12:02:49;14.13;;;6.10;;
67941;SDS011;54731;42.600;23.476;2024-03-06T12:05:15;13.68;;;6.32;;
67941;SDS011;54731;42.600;23.476;2024-03-06T12:07:48;11.20;;;6.43;;
67941;SDS011;54731;42.600;23.476;2024-03-06T12:10:16;11.88;;;5.55;;
67941;SDS011;54731;42.600;23.476;2024-03-06T12:12:42;10.10;;;6.03;;
67941;SDS011;54731;42.600;23.476;2024-03-06T12:15:10;8.50;;;5.23;;
67941;SDS011;54731;42.600;23.476;2024-03-06T12:17:44;14.77;;;9.80;;
67941;SDS011;54731;42.600;23.476;2024-03-06T12:20:10;10.38;;;6.05;;
67941;SDS011;54731;42.600;23.476;2024-03-06T12:22:36;10.25;;;5.68;;
67941;SDS011;54731;42.600;23.476;2024-03-06T12:25:01;10.20;;;5.30;;
67941;SDS011;54731;42.600;23.476;2024-03-06T12:27:27;12.43;;;5.20;;
67941;SDS011;54731;42.600;23.476;2024-03-06T12:29:52;13.77;;;5.40;;
67941;SDS011;54731;42.600;23.476;2024-03-06T12:32:18;9.63;;;5.65;;
67941;SDS011;54731;42.600;23.476;2024-03-06T12:34:44;10.82;;;5.63;;
67941;SDS011;54731;42.600;23.476;2024-03-06T12:37:09;9.80;;;5.33;;
67941;SDS011;54731;42.600;23.476;2024-03-06T12:39:35;10.90;;;7.23;;
67941;SDS011;54731;42.600;23.476;2024-03-06T12:42:00;25.33;;;10.10;;
67941;SDS011;54731;42.600;23.476;2024-03-06T12:44:26;20.30;;;8.50;;
67941;SDS011;54731;42.600;23.476;2024-03-06T12:46:51;24.00;;;10.93;;
67941;SDS011;54731;42.600;23.476;2024-03-06T12:49:16;31.73;;;10.98;;
67941;SDS011;54731;42.600;23.476;2024-03-06T12:51:41;10.90;;;5.47;;
67941;SDS011;54731;42.600;23.476;2024-03-06T12:54:07;10.57;;;5.53;;
67941;SDS011;54731;42.600;23.476;2024-03-06T12:56:32;8.57;;;5.23;;
67941;SDS011;54731;42.600;23.476;2024-03-06T12:58:57;13.80;;;5.90;;
67941;SDS011;54731;42.600;23.476;2024-03-06T13:01:23;10.13;;;6.00;;
67941;SDS011;54731;42.600;23.476;2024-03-06T13:03:48;8.77;;;4.87;;
67941;SDS011;54731;42.600;23.476;2024-03-06T13:06:13;15.83;;;7.50;;
67941;SDS011;54731;42.600;23.476;2024-03-06T13:08:38;12.57;;;6.33;;
67941;SDS011;54731;42.600;23.476;2024-03-06T13:11:04;11.10;;;5.10;;
67941;SDS011;54731;42.600;23.476;2024-03-06T13:13:29;7.85;;;5.45;;
67941;SDS011;54731;42.600;23.476;2024-03-06T13:15:55;6.93;;;4.60;;
67941;SDS011;54731;42.600;23.476;2024-03-06T13:18:21;10.27;;;4.95;;
67941;SDS011;54731;42.600;23.476;2024-03-06T13:20:46;9.33;;;5.43;;
67941;SDS011;54731;42.600;23.476;2024-03-06T13:23:12;8.97;;;5.10;;
67941;SDS011;54731;42.600;23.476;2024-03-06T13:25:37;9.63;;;5.73;;
67941;SDS011;54731;42.600;23.476;2024-03-06T13:28:03;11.48;;;6.40;;
67941;SDS011;54731;42.600;23.476;2024-03-06T13:30:29;10.93;;;6.10;;
67941;SDS011;54731;42.600;23.476;2024-03-06T13:32:54;8.40;;;4.43;;
67941;SDS011;54731;42.600;23.476;2024-03-06T13:35:19;8.52;;;4.40;;
67941;SDS011;54731;42.600;23.476;2024-03-06T13:37:45;10.93;;;6.93;;
67941;SDS011;54731;42.600;23.476;2024-03-06T13:40:11;14.10;;;6.05;;
67941;SDS011;54731;42.600;23.476;2024-03-06T13:42:37;11.53;;;6.03;;
67941;SDS011;54731;42.600;23.476;2024-03-06T13:45:03;12.13;;;6.67;;
67941;SDS011;54731;42.600;23.476;2024-03-06T13:47:29;9.70;;;5.82;;
67941;SDS011;54731;42.600;23.476;2024-03-06T13:49:55;10.43;;;5.75;;
67941;SDS011;54731;42.600;23.476;2024-03-06T13:52:20;13.23;;;7.47;;
67941;SDS011;54731;42.600;23.476;2024-03-06T13:54:46;17.13;;;8.57;;
67941;SDS011;54731;42.600;23.476;2024-03-06T13:57:11;13.82;;;7.07;;
67941;SDS011;54731;42.600;23.476;2024-03-06T13:59:37;13.85;;;7.35;;
67941;SDS011;54731;42.600;23.476;2024-03-06T14:02:03;13.83;;;7.03;;
67941;SDS011;54731;42.600;23.476;2024-03-06T14:04:34;21.50;;;13.07;;
67941;SDS011;54731;42.600;23.476;2024-03-06T14:07:00;21.30;;;13.00;;
67941;SDS011;54731;42.600;23.476;2024-03-06T14:09:26;8.30;;;5.20;;
67941;SDS011;54731;42.600;23.476;2024-03-06T14:11:55;8.13;;;5.03;;
67941;SDS011;54731;42.600;23.476;2024-03-06T14:14:20;9.55;;;6.22;;
67941;SDS011;54731;42.600;23.476;2024-03-06T14:16:46;11.10;;;6.10;;
67941;SDS011;54731;42.600;23.476;2024-03-06T14:19:11;13.38;;;6.25;;
67941;SDS011;54731;42.600;23.476;2024-03-06T14:21:40;8.23;;;4.30;;